Mc Connelsville, Ohio
Current Conditions -  °F | °C
As of 8:53 PM on Monday 24 Nov 2014 (Local Time) from KZZV Reporting Station
Overcast Overcast  
Wind Chill: 36°   Ceiling: 4000
Heat Index: 44°   Visibility: 10mi
Dew Point: 30°   Wind: 17mph
Humidity: 58%   Direction: 240°WSW
Pressure: 29.83"   Gusts: 28mph
Location:  39.67°N, 81.8376°W
Report Text: KZZV 250153Z AUTO 24015G24KT 10SM OVC040 07/M01 A2983 RMK AO2 SLP100 T00671011
Loading
Personal Weather Stations






























Interactive Weather Map New forecast layout! Learn more

10-Day Weather Forecast

Advertisements
Track Severe Weather on mobile